Terminal Aerodrome Forecast
Issued by NWS Mobile, AL

Home | Current Version | Previous Version | Text Only | Print | Product List | Glossary On
Versions: 1 2 3 4 5 6 7 8 9 10 11 12 13 14 15 16 17 18 19
000
FTUS44 KMOB 270533
TAFPNS
TAF
KPNS 270533Z 2706/2806 17006KT P6SM OVC006
      TEMPO 2708/2712 3SM BR OVC007
     FM271400 17010KT 4SM BR BKN020
     FM271900 17014G20KT P6SM SCT050 BKN100
     FM280300 18005KT 2SM BR OVC004=

USA.gov is the U.S. government's official web portal to all federal, state and local government web resources and services.